sensor_id;sensor_type;location;lat;lon;timestamp;P1;durP1;ratioP1;P2;durP2;ratioP2
62037;SDS011;47991;42.974;12.082;2024-03-17T00:00:00;12.60;;;6.00;;
62037;SDS011;47991;42.974;12.082;2024-03-17T00:02:29;11.20;;;6.40;;
62037;SDS011;47991;42.974;12.082;2024-03-17T00:04:56;14.40;;;7.00;;
62037;SDS011;47991;42.974;12.082;2024-03-17T00:07:23;11.10;;;6.50;;
62037;SDS011;47991;42.974;12.082;2024-03-17T00:09:50;12.90;;;5.90;;
62037;SDS011;47991;42.974;12.082;2024-03-17T00:12:17;12.10;;;6.20;;
62037;SDS011;47991;42.974;12.082;2024-03-17T00:14:45;16.20;;;6.80;;
62037;SDS011;47991;42.974;12.082;2024-03-17T00:17:13;11.90;;;6.40;;
62037;SDS011;47991;42.974;12.082;2024-03-17T00:19:42;13.20;;;6.80;;
62037;SDS011;47991;42.974;12.082;2024-03-17T00:22:09;14.90;;;6.80;;
62037;SDS011;47991;42.974;12.082;2024-03-17T00:24:40;13.30;;;6.40;;
62037;SDS011;47991;42.974;12.082;2024-03-17T00:27:09;13.70;;;6.80;;
62037;SDS011;47991;42.974;12.082;2024-03-17T00:29:38;12.50;;;6.40;;
62037;SDS011;47991;42.974;12.082;2024-03-17T00:32:05;12.70;;;6.30;;
62037;SDS011;47991;42.974;12.082;2024-03-17T00:34:33;12.00;;;6.00;;
62037;SDS011;47991;42.974;12.082;2024-03-17T00:37:01;14.60;;;6.90;;
62037;SDS011;47991;42.974;12.082;2024-03-17T00:39:29;13.00;;;6.60;;
62037;SDS011;47991;42.974;12.082;2024-03-17T00:41:56;17.90;;;7.20;;
62037;SDS011;47991;42.974;12.082;2024-03-17T00:44:24;14.20;;;7.40;;
62037;SDS011;47991;42.974;12.082;2024-03-17T00:46:51;13.50;;;6.70;;
62037;SDS011;47991;42.974;12.082;2024-03-17T00:49:18;15.60;;;7.30;;
62037;SDS011;47991;42.974;12.082;2024-03-17T00:51:46;15.90;;;7.90;;
62037;SDS011;47991;42.974;12.082;2024-03-17T00:54:14;11.60;;;7.70;;
62037;SDS011;47991;42.974;12.082;2024-03-17T00:56:41;13.50;;;8.00;;
62037;SDS011;47991;42.974;12.082;2024-03-17T00:59:09;18.50;;;7.30;;
62037;SDS011;47991;42.974;12.082;2024-03-17T01:01:36;15.20;;;8.40;;
62037;SDS011;47991;42.974;12.082;2024-03-17T01:04:04;16.70;;;8.10;;
62037;SDS011;47991;42.974;12.082;2024-03-17T01:06:31;16.30;;;8.70;;
62037;SDS011;47991;42.974;12.082;2024-03-17T01:08:59;17.60;;;8.90;;
62037;SDS011;47991;42.974;12.082;2024-03-17T01:11:26;15.10;;;7.60;;
62037;SDS011;47991;42.974;12.082;2024-03-17T01:13:54;13.10;;;7.60;;
62037;SDS011;47991;42.974;12.082;2024-03-17T01:16:21;16.20;;;8.50;;
62037;SDS011;47991;42.974;12.082;2024-03-17T01:18:49;13.60;;;7.80;;
62037;SDS011;47991;42.974;12.082;2024-03-17T01:21:16;14.70;;;8.30;;
62037;SDS011;47991;42.974;12.082;2024-03-17T01:23:44;15.10;;;8.40;;
62037;SDS011;47991;42.974;12.082;2024-03-17T01:26:11;13.10;;;7.80;;
62037;SDS011;47991;42.974;12.082;2024-03-17T01:28:38;13.80;;;7.60;;
62037;SDS011;47991;42.974;12.082;2024-03-17T01:31:08;15.70;;;9.00;;
62037;SDS011;47991;42.974;12.082;2024-03-17T01:33:36;14.00;;;7.90;;
62037;SDS011;47991;42.974;12.082;2024-03-17T01:36:03;14.60;;;8.60;;
62037;SDS011;47991;42.974;12.082;2024-03-17T01:38:31;14.60;;;8.90;;
62037;SDS011;47991;42.974;12.082;2024-03-17T01:40:59;15.80;;;8.50;;
62037;SDS011;47991;42.974;12.082;2024-03-17T01:43:26;14.40;;;8.60;;
62037;SDS011;47991;42.974;12.082;2024-03-17T01:45:53;15.00;;;8.80;;
62037;SDS011;47991;42.974;12.082;2024-03-17T01:48:20;19.50;;;8.30;;
62037;SDS011;47991;42.974;12.082;2024-03-17T01:50:48;15.50;;;8.20;;
62037;SDS011;47991;42.974;12.082;2024-03-17T01:53:18;15.10;;;8.00;;
62037;SDS011;47991;42.974;12.082;2024-03-17T01:55:47;13.90;;;7.60;;
62037;SDS011;47991;42.974;12.082;2024-03-17T01:58:15;15.00;;;8.50;;
62037;SDS011;47991;42.974;12.082;2024-03-17T02:00:44;14.30;;;7.60;;
62037;SDS011;47991;42.974;12.082;2024-03-17T02:03:11;12.40;;;7.50;;
62037;SDS011;47991;42.974;12.082;2024-03-17T02:05:39;14.50;;;7.70;;
62037;SDS011;47991;42.974;12.082;2024-03-17T02:08:07;14.80;;;7.40;;
62037;SDS011;47991;42.974;12.082;2024-03-17T02:10:34;13.70;;;8.50;;
62037;SDS011;47991;42.974;12.082;2024-03-17T02:13:02;15.50;;;8.20;;
62037;SDS011;47991;42.974;12.082;2024-03-17T02:15:30;15.60;;;8.60;;
62037;SDS011;47991;42.974;12.082;2024-03-17T02:17:57;17.20;;;8.30;;
62037;SDS011;47991;42.974;12.082;2024-03-17T02:20:25;14.30;;;9.20;;
62037;SDS011;47991;42.974;12.082;2024-03-17T02:23:12;15.50;;;8.70;;
62037;SDS011;47991;42.974;12.082;2024-03-17T02:25:39;12.80;;;7.60;;
62037;SDS011;47991;42.974;12.082;2024-03-17T02:28:07;13.70;;;8.10;;
62037;SDS011;47991;42.974;12.082;2024-03-17T02:30:34;11.60;;;6.80;;
62037;SDS011;47991;42.974;12.082;2024-03-17T02:33:02;16.70;;;8.00;;
62037;SDS011;47991;42.974;12.082;2024-03-17T02:35:30;14.50;;;8.70;;
62037;SDS011;47991;42.974;12.082;2024-03-17T02:37:57;12.70;;;7.60;;
62037;SDS011;47991;42.974;12.082;2024-03-17T02:40:24;15.30;;;7.70;;
62037;SDS011;47991;42.974;12.082;2024-03-17T02:42:51;13.70;;;8.20;;
62037;SDS011;47991;42.974;12.082;2024-03-17T02:45:18;16.10;;;8.80;;
62037;SDS011;47991;42.974;12.082;2024-03-17T02:47:47;15.70;;;8.00;;
62037;SDS011;47991;42.974;12.082;2024-03-17T02:50:16;15.20;;;8.30;;
62037;SDS011;47991;42.974;12.082;2024-03-17T02:52:43;13.20;;;7.10;;
62037;SDS011;47991;42.974;12.082;2024-03-17T02:55:10;13.00;;;7.30;;
62037;SDS011;47991;42.974;12.082;2024-03-17T02:57:38;14.70;;;8.30;;
62037;SDS011;47991;42.974;12.082;2024-03-17T03:00:06;13.20;;;8.20;;
62037;SDS011;47991;42.974;12.082;2024-03-17T03:02:35;14.90;;;8.20;;
62037;SDS011;47991;42.974;12.082;2024-03-17T03:05:03;13.40;;;7.70;;
62037;SDS011;47991;42.974;12.082;2024-03-17T03:07:30;15.70;;;8.70;;
62037;SDS011;47991;42.974;12.082;2024-03-17T03:09:57;15.00;;;8.30;;
62037;SDS011;47991;42.974;12.082;2024-03-17T03:12:24;17.20;;;9.20;;
62037;SDS011;47991;42.974;12.082;2024-03-17T03:14:52;16.90;;;9.40;;
62037;SDS011;47991;42.974;12.082;2024-03-17T03:17:19;15.90;;;9.00;;
62037;SDS011;47991;42.974;12.082;2024-03-17T03:19:47;15.50;;;9.40;;
62037;SDS011;47991;42.974;12.082;2024-03-17T03:22:14;18.10;;;9.70;;
62037;SDS011;47991;42.974;12.082;2024-03-17T03:24:41;15.80;;;9.40;;
62037;SDS011;47991;42.974;12.082;2024-03-17T03:27:08;14.90;;;8.20;;
62037;SDS011;47991;42.974;12.082;2024-03-17T03:29:35;14.30;;;8.30;;
62037;SDS011;47991;42.974;12.082;2024-03-17T03:32:04;15.10;;;8.60;;
62037;SDS011;47991;42.974;12.082;2024-03-17T03:34:31;14.50;;;9.10;;
62037;SDS011;47991;42.974;12.082;2024-03-17T03:36:58;14.90;;;9.30;;
62037;SDS011;47991;42.974;12.082;2024-03-17T03:39:25;15.30;;;9.20;;
62037;SDS011;47991;42.974;12.082;2024-03-17T03:41:58;14.10;;;8.70;;
62037;SDS011;47991;42.974;12.082;2024-03-17T03:44:25;13.00;;;8.50;;
62037;SDS011;47991;42.974;12.082;2024-03-17T03:46:52;17.40;;;9.10;;
62037;SDS011;47991;42.974;12.082;2024-03-17T03:49:23;18.90;;;10.50;;
62037;SDS011;47991;42.974;12.082;2024-03-17T03:51:50;16.90;;;10.20;;
62037;SDS011;47991;42.974;12.082;2024-03-17T03:54:17;17.00;;;9.20;;
62037;SDS011;47991;42.974;12.082;2024-03-17T03:56:44;16.10;;;9.50;;
62037;SDS011;47991;42.974;12.082;2024-03-17T03:59:11;15.10;;;8.60;;
62037;SDS011;47991;42.974;12.082;2024-03-17T04:01:38;15.80;;;9.60;;
62037;SDS011;47991;42.974;12.082;2024-03-17T04:04:05;15.90;;;9.40;;
62037;SDS011;47991;42.974;12.082;2024-03-17T04:06:33;16.70;;;10.00;;
62037;SDS011;47991;42.974;12.082;2024-03-17T04:09:00;16.90;;;10.30;;
62037;SDS011;47991;42.974;12.082;2024-03-17T04:11:27;17.80;;;10.40;;
62037;SDS011;47991;42.974;12.082;2024-03-17T04:13:54;18.70;;;11.20;;
62037;SDS011;47991;42.974;12.082;2024-03-17T04:16:22;21.70;;;11.10;;
62037;SDS011;47991;42.974;12.082;2024-03-17T04:18:50;19.90;;;11.60;;
62037;SDS011;47991;42.974;12.082;2024-03-17T04:21:17;25.60;;;13.00;;
62037;SDS011;47991;42.974;12.082;2024-03-17T04:23:44;23.30;;;13.30;;
62037;SDS011;47991;42.974;12.082;2024-03-17T04:26:11;26.90;;;14.10;;
62037;SDS011;47991;42.974;12.082;2024-03-17T04:28:39;23.70;;;13.80;;
62037;SDS011;47991;42.974;12.082;2024-03-17T04:31:07;23.70;;;13.70;;
62037;SDS011;47991;42.974;12.082;2024-03-17T04:33:35;21.40;;;11.50;;
62037;SDS011;47991;42.974;12.082;2024-03-17T04:36:03;20.80;;;11.10;;
62037;SDS011;47991;42.974;12.082;2024-03-17T04:38:30;27.20;;;11.60;;
62037;SDS011;47991;42.974;12.082;2024-03-17T04:40:57;31.80;;;14.10;;
62037;SDS011;47991;42.974;12.082;2024-03-17T04:43:36;23.30;;;13.00;;
62037;SDS011;47991;42.974;12.082;2024-03-17T04:46:04;47.60;;;13.00;;
62037;SDS011;47991;42.974;12.082;2024-03-17T04:48:33;29.30;;;13.50;;
62037;SDS011;47991;42.974;12.082;2024-03-17T04:51:00;27.30;;;13.20;;
62037;SDS011;47991;42.974;12.082;2024-03-17T04:53:28;23.30;;;13.10;;
62037;SDS011;47991;42.974;12.082;2024-03-17T04:55:59;27.20;;;13.40;;
62037;SDS011;47991;42.974;12.082;2024-03-17T04:58:27;34.60;;;14.80;;
62037;SDS011;47991;42.974;12.082;2024-03-17T05:00:54;35.10;;;16.00;;
62037;SDS011;47991;42.974;12.082;2024-03-17T05:03:21;30.20;;;13.20;;
62037;SDS011;47991;42.974;12.082;2024-03-17T05:05:48;38.40;;;15.00;;
62037;SDS011;47991;42.974;12.082;2024-03-17T05:08:27;25.60;;;13.40;;
62037;SDS011;47991;42.974;12.082;2024-03-17T05:10:56;27.90;;;13.60;;
62037;SDS011;47991;42.974;12.082;2024-03-17T05:13:25;28.20;;;12.20;;
62037;SDS011;47991;42.974;12.082;2024-03-17T05:15:55;22.30;;;12.30;;
62037;SDS011;47991;42.974;12.082;2024-03-17T05:18:23;24.50;;;12.00;;
62037;SDS011;47991;42.974;12.082;2024-03-17T05:20:58;27.00;;;12.90;;
62037;SDS011;47991;42.974;12.082;2024-03-17T05:23:30;22.10;;;11.10;;
62037;SDS011;47991;42.974;12.082;2024-03-17T05:25:59;21.60;;;11.50;;
62037;SDS011;47991;42.974;12.082;2024-03-17T05:28:27;17.40;;;10.80;;
62037;SDS011;47991;42.974;12.082;2024-03-17T05:30:56;19.50;;;11.60;;
62037;SDS011;47991;42.974;12.082;2024-03-17T05:33:24;24.70;;;12.60;;
62037;SDS011;47991;42.974;12.082;2024-03-17T05:35:55;18.60;;;12.30;;
62037;SDS011;47991;42.974;12.082;2024-03-17T05:38:25;29.10;;;12.10;;
62037;SDS011;47991;42.974;12.082;2024-03-17T05:40:57;20.20;;;11.60;;
62037;SDS011;47991;42.974;12.082;2024-03-17T05:43:29;19.30;;;11.50;;
62037;SDS011;47991;42.974;12.082;2024-03-17T05:45:57;25.80;;;12.20;;
62037;SDS011;47991;42.974;12.082;2024-03-17T05:48:26;41.70;;;13.30;;
62037;SDS011;47991;42.974;12.082;2024-03-17T05:50:54;26.40;;;11.80;;
62037;SDS011;47991;42.974;12.082;2024-03-17T05:53:22;18.00;;;10.40;;
62037;SDS011;47991;42.974;12.082;2024-03-17T05:55:50;18.50;;;11.20;;
62037;SDS011;47991;42.974;12.082;2024-03-17T05:58:17;19.00;;;10.20;;
62037;SDS011;47991;42.974;12.082;2024-03-17T06:00:44;19.70;;;10.70;;
62037;SDS011;47991;42.974;12.082;2024-03-17T06:03:11;17.10;;;10.20;;
62037;SDS011;47991;42.974;12.082;2024-03-17T06:05:40;17.90;;;9.80;;
62037;SDS011;47991;42.974;12.082;2024-03-17T06:08:10;18.20;;;10.30;;
62037;SDS011;47991;42.974;12.082;2024-03-17T06:10:38;17.30;;;10.40;;
62037;SDS011;47991;42.974;12.082;2024-03-17T06:13:10;16.30;;;9.90;;
62037;SDS011;47991;42.974;12.082;2024-03-17T06:15:43;18.90;;;10.80;;
62037;SDS011;47991;42.974;12.082;2024-03-17T06:18:13;19.00;;;10.30;;
62037;SDS011;47991;42.974;12.082;2024-03-17T06:20:44;21.30;;;10.70;;
62037;SDS011;47991;42.974;12.082;2024-03-17T06:23:13;19.60;;;11.60;;
62037;SDS011;47991;42.974;12.082;2024-03-17T06:25:43;26.80;;;12.90;;
62037;SDS011;47991;42.974;12.082;2024-03-17T06:28:13;32.00;;;11.80;;
62037;SDS011;47991;42.974;12.082;2024-03-17T06:30:41;19.60;;;11.40;;
62037;SDS011;47991;42.974;12.082;2024-03-17T06:33:17;18.50;;;11.60;;
62037;SDS011;47991;42.974;12.082;2024-03-17T06:35:47;18.30;;;9.60;;
62037;SDS011;47991;42.974;12.082;2024-03-17T06:38:15;17.90;;;9.50;;
62037;SDS011;47991;42.974;12.082;2024-03-17T06:40:47;24.10;;;10.30;;
62037;SDS011;47991;42.974;12.082;2024-03-17T06:43:18;23.10;;;9.60;;
62037;SDS011;47991;42.974;12.082;2024-03-17T06:46:07;20.80;;;8.70;;
62037;SDS011;47991;42.974;12.082;2024-03-17T06:48:34;17.10;;;9.70;;
62037;SDS011;47991;42.974;12.082;2024-03-17T06:51:02;14.80;;;9.30;;
62037;SDS011;47991;42.974;12.082;2024-03-17T06:53:29;18.80;;;10.50;;
62037;SDS011;47991;42.974;12.082;2024-03-17T06:55:57;16.60;;;8.80;;
62037;SDS011;47991;42.974;12.082;2024-03-17T06:58:26;16.90;;;8.80;;
62037;SDS011;47991;42.974;12.082;2024-03-17T07:00:56;24.40;;;9.20;;
62037;SDS011;47991;42.974;12.082;2024-03-17T07:03:26;15.50;;;8.80;;
62037;SDS011;47991;42.974;12.082;2024-03-17T07:08:24;15.20;;;8.80;;
62037;SDS011;47991;42.974;12.082;2024-03-17T07:11:04;16.60;;;9.50;;
62037;SDS011;47991;42.974;12.082;2024-03-17T07:13:34;15.70;;;10.10;;
62037;SDS011;47991;42.974;12.082;2024-03-17T07:16:04;43.50;;;10.30;;
62037;SDS011;47991;42.974;12.082;2024-03-17T07:18:32;19.70;;;10.00;;
62037;SDS011;47991;42.974;12.082;2024-03-17T07:21:01;16.00;;;8.90;;
62037;SDS011;47991;42.974;12.082;2024-03-17T07:23:33;13.30;;;8.10;;
62037;SDS011;47991;42.974;12.082;2024-03-17T07:26:00;17.60;;;9.30;;
62037;SDS011;47991;42.974;12.082;2024-03-17T07:28:29;12.90;;;7.10;;
62037;SDS011;47991;42.974;12.082;2024-03-17T07:30:57;14.40;;;8.30;;
62037;SDS011;47991;42.974;12.082;2024-03-17T07:33:27;13.50;;;8.20;;
62037;SDS011;47991;42.974;12.082;2024-03-17T07:35:54;15.20;;;8.90;;
62037;SDS011;47991;42.974;12.082;2024-03-17T07:38:29;22.50;;;10.40;;
62037;SDS011;47991;42.974;12.082;2024-03-17T07:43:27;30.10;;;10.80;;
62037;SDS011;47991;42.974;12.082;2024-03-17T07:48:30;22.10;;;10.00;;
62037;SDS011;47991;42.974;12.082;2024-03-17T07:51:00;18.70;;;9.10;;
62037;SDS011;47991;42.974;12.082;2024-03-17T07:53:32;19.80;;;9.90;;
62037;SDS011;47991;42.974;12.082;2024-03-17T07:56:07;20.70;;;10.80;;
62037;SDS011;47991;42.974;12.082;2024-03-17T07:58:39;30.00;;;9.70;;
62037;SDS011;47991;42.974;12.082;2024-03-17T08:01:11;29.10;;;11.10;;
62037;SDS011;47991;42.974;12.082;2024-03-17T08:03:40;18.60;;;10.00;;
62037;SDS011;47991;42.974;12.082;2024-03-17T08:06:12;20.20;;;11.40;;
62037;SDS011;47991;42.974;12.082;2024-03-17T08:08:39;26.80;;;11.60;;
62037;SDS011;47991;42.974;12.082;2024-03-17T08:11:06;23.80;;;12.00;;
62037;SDS011;47991;42.974;12.082;2024-03-17T08:13:33;33.80;;;10.80;;
62037;SDS011;47991;42.974;12.082;2024-03-17T08:16:02;20.00;;;10.80;;
62037;SDS011;47991;42.974;12.082;2024-03-17T08:18:35;24.70;;;12.00;;
62037;SDS011;47991;42.974;12.082;2024-03-17T08:21:03;37.70;;;10.60;;
62037;SDS011;47991;42.974;12.082;2024-03-17T08:23:33;18.60;;;11.10;;
62037;SDS011;47991;42.974;12.082;2024-03-17T08:26:02;19.20;;;10.10;;
62037;SDS011;47991;42.974;12.082;2024-03-17T08:28:30;22.10;;;11.90;;
62037;SDS011;47991;42.974;12.082;2024-03-17T08:30:58;21.80;;;11.60;;
62037;SDS011;47991;42.974;12.082;2024-03-17T08:33:27;29.00;;;11.60;;
62037;SDS011;47991;42.974;12.082;2024-03-17T08:35:56;20.60;;;10.90;;
62037;SDS011;47991;42.974;12.082;2024-03-17T08:38:24;24.70;;;13.20;;
62037;SDS011;47991;42.974;12.082;2024-03-17T08:40:54;30.90;;;12.80;;
62037;SDS011;47991;42.974;12.082;2024-03-17T08:43:23;28.60;;;12.40;;
62037;SDS011;47991;42.974;12.082;2024-03-17T08:45:57;24.30;;;12.70;;
62037;SDS011;47991;42.974;12.082;2024-03-17T08:48:27;22.40;;;11.80;;
62037;SDS011;47991;42.974;12.082;2024-03-17T08:50:57;21.60;;;12.60;;
62037;SDS011;47991;42.974;12.082;2024-03-17T08:53:25;22.80;;;13.70;;
62037;SDS011;47991;42.974;12.082;2024-03-17T08:55:53;24.60;;;14.80;;
62037;SDS011;47991;42.974;12.082;2024-03-17T08:58:21;24.30;;;13.90;;
62037;SDS011;47991;42.974;12.082;2024-03-17T09:00:49;18.90;;;11.70;;
62037;SDS011;47991;42.974;12.082;2024-03-17T09:03:17;22.00;;;12.50;;
62037;SDS011;47991;42.974;12.082;2024-03-17T09:05:47;22.10;;;12.40;;
62037;SDS011;47991;42.974;12.082;2024-03-17T09:08:21;21.40;;;12.10;;
62037;SDS011;47991;42.974;12.082;2024-03-17T09:10:51;19.80;;;12.50;;
62037;SDS011;47991;42.974;12.082;2024-03-17T09:13:20;22.20;;;12.10;;
62037;SDS011;47991;42.974;12.082;2024-03-17T09:18:20;19.50;;;11.70;;
62037;SDS011;47991;42.974;12.082;2024-03-17T09:20:58;22.30;;;12.20;;
62037;SDS011;47991;42.974;12.082;2024-03-17T09:23:27;18.30;;;11.70;;
62037;SDS011;47991;42.974;12.082;2024-03-17T09:26:00;20.30;;;11.80;;
62037;SDS011;47991;42.974;12.082;2024-03-17T09:28:31;17.70;;;10.60;;
62037;SDS011;47991;42.974;12.082;2024-03-17T09:31:00;19.10;;;12.40;;
62037;SDS011;47991;42.974;12.082;2024-03-17T09:33:28;19.00;;;10.40;;
62037;SDS011;47991;42.974;12.082;2024-03-17T09:35:57;16.70;;;10.10;;
62037;SDS011;47991;42.974;12.082;2024-03-17T09:38:27;17.70;;;11.90;;
62037;SDS011;47991;42.974;12.082;2024-03-17T09:40:54;18.60;;;11.80;;
62037;SDS011;47991;42.974;12.082;2024-03-17T09:43:24;20.50;;;12.90;;
62037;SDS011;47991;42.974;12.082;2024-03-17T09:45:52;20.50;;;13.20;;
62037;SDS011;47991;42.974;12.082;2024-03-17T09:48:23;20.60;;;13.50;;
62037;SDS011;47991;42.974;12.082;2024-03-17T09:50:52;25.10;;;15.00;;
62037;SDS011;47991;42.974;12.082;2024-03-17T09:53:25;25.80;;;18.30;;
62037;SDS011;47991;42.974;12.082;2024-03-17T09:58:35;31.80;;;19.70;;
62037;SDS011;47991;42.974;12.082;2024-03-17T10:01:04;28.50;;;19.50;;
62037;SDS011;47991;42.974;12.082;2024-03-17T10:06:19;26.50;;;17.70;;
62037;SDS011;47991;42.974;12.082;2024-03-17T10:11:25;21.50;;;14.30;;
62037;SDS011;47991;42.974;12.082;2024-03-17T10:14:03;21.20;;;14.60;;
62037;SDS011;47991;42.974;12.082;2024-03-17T10:16:32;22.50;;;15.10;;
62037;SDS011;47991;42.974;12.082;2024-03-17T10:19:10;24.30;;;16.70;;
62037;SDS011;47991;42.974;12.082;2024-03-17T10:21:39;23.50;;;15.30;;
62037;SDS011;47991;42.974;12.082;2024-03-17T10:26:36;22.30;;;15.30;;
62037;SDS011;47991;42.974;12.082;2024-03-17T10:29:15;19.50;;;14.10;;
62037;SDS011;47991;42.974;12.082;2024-03-17T10:31:46;20.90;;;14.00;;
62037;SDS011;47991;42.974;12.082;2024-03-17T10:34:14;16.40;;;11.40;;
62037;SDS011;47991;42.974;12.082;2024-03-17T10:36:45;20.30;;;12.30;;
62037;SDS011;47991;42.974;12.082;2024-03-17T10:39:26;16.30;;;11.50;;
62037;SDS011;47991;42.974;12.082;2024-03-17T10:41:58;17.20;;;10.80;;
62037;SDS011;47991;42.974;12.082;2024-03-17T10:44:28;17.20;;;11.30;;
62037;SDS011;47991;42.974;12.082;2024-03-17T10:46:56;17.20;;;10.30;;
62037;SDS011;47991;42.974;12.082;2024-03-17T10:49:28;16.20;;;11.00;;
62037;SDS011;47991;42.974;12.082;2024-03-17T10:52:05;17.30;;;11.00;;
62037;SDS011;47991;42.974;12.082;2024-03-17T10:54:34;16.40;;;11.10;;
62037;SDS011;47991;42.974;12.082;2024-03-17T11:00:07;18.10;;;11.00;;
62037;SDS011;47991;42.974;12.082;2024-03-17T11:02:35;17.10;;;10.50;;
62037;SDS011;47991;42.974;12.082;2024-03-17T11:05:03;15.20;;;10.30;;
62037;SDS011;47991;42.974;12.082;2024-03-17T11:07:38;14.80;;;9.30;;
62037;SDS011;47991;42.974;12.082;2024-03-17T11:10:35;14.00;;;8.10;;
62037;SDS011;47991;42.974;12.082;2024-03-17T11:13:05;14.00;;;8.00;;
62037;SDS011;47991;42.974;12.082;2024-03-17T11:15:48;16.20;;;7.70;;
62037;SDS011;47991;42.974;12.082;2024-03-17T11:23:33;14.80;;;9.40;;
62037;SDS011;47991;42.974;12.082;2024-03-17T11:34:28;9.60;;;5.30;;
62037;SDS011;47991;42.974;12.082;2024-03-17T11:37:02;10.40;;;5.50;;
62037;SDS011;47991;42.974;12.082;2024-03-17T11:42:30;11.00;;;5.70;;
62037;SDS011;47991;42.974;12.082;2024-03-17T11:45:00;8.10;;;4.60;;
62037;SDS011;47991;42.974;12.082;2024-03-17T11:47:40;11.20;;;5.00;;
62037;SDS011;47991;42.974;12.082;2024-03-17T11:50:08;10.90;;;5.80;;
62037;SDS011;47991;42.974;12.082;2024-03-17T11:52:37;13.00;;;7.20;;
62037;SDS011;47991;42.974;12.082;2024-03-17T11:57:42;16.00;;;9.60;;
62037;SDS011;47991;42.974;12.082;2024-03-17T12:00:22;15.50;;;9.70;;
62037;SDS011;47991;42.974;12.082;2024-03-17T12:02:51;18.20;;;10.70;;
62037;SDS011;47991;42.974;12.082;2024-03-17T12:05:18;16.20;;;10.40;;
62037;SDS011;47991;42.974;12.082;2024-03-17T12:07:47;16.50;;;9.70;;
62037;SDS011;47991;42.974;12.082;2024-03-17T12:10:15;16.90;;;11.20;;
62037;SDS011;47991;42.974;12.082;2024-03-17T12:12:46;16.30;;;11.40;;
62037;SDS011;47991;42.974;12.082;2024-03-17T12:15:18;19.70;;;11.90;;
62037;SDS011;47991;42.974;12.082;2024-03-17T12:17:46;17.50;;;11.20;;
62037;SDS011;47991;42.974;12.082;2024-03-17T12:20:21;16.00;;;10.10;;
62037;SDS011;47991;42.974;12.082;2024-03-17T12:22:48;14.30;;;9.20;;
62037;SDS011;47991;42.974;12.082;2024-03-17T12:25:17;14.90;;;9.00;;
62037;SDS011;47991;42.974;12.082;2024-03-17T12:27:47;15.40;;;10.00;;
62037;SDS011;47991;42.974;12.082;2024-03-17T12:30:15;13.10;;;8.20;;
62037;SDS011;47991;42.974;12.082;2024-03-17T12:32:44;14.20;;;9.50;;
62037;SDS011;47991;42.974;12.082;2024-03-17T12:35:14;11.90;;;7.50;;
62037;SDS011;47991;42.974;12.082;2024-03-17T12:37:43;13.10;;;7.60;;
62037;SDS011;47991;42.974;12.082;2024-03-17T12:40:18;10.50;;;6.30;;
62037;SDS011;47991;42.974;12.082;2024-03-17T12:42:47;10.80;;;6.30;;
62037;SDS011;47991;42.974;12.082;2024-03-17T12:45:19;11.90;;;5.90;;
62037;SDS011;47991;42.974;12.082;2024-03-17T12:47:48;10.20;;;5.50;;
62037;SDS011;47991;42.974;12.082;2024-03-17T12:50:17;9.80;;;5.40;;
62037;SDS011;47991;42.974;12.082;2024-03-17T12:52:54;8.10;;;4.60;;
62037;SDS011;47991;42.974;12.082;2024-03-17T12:55:22;8.80;;;4.60;;
62037;SDS011;47991;42.974;12.082;2024-03-17T12:58:09;9.40;;;4.60;;
62037;SDS011;47991;42.974;12.082;2024-03-17T13:00:59;7.60;;;4.00;;
62037;SDS011;47991;42.974;12.082;2024-03-17T13:03:34;8.70;;;4.10;;
62037;SDS011;47991;42.974;12.082;2024-03-17T13:06:03;7.20;;;3.60;;
62037;SDS011;47991;42.974;12.082;2024-03-17T13:08:34;7.40;;;3.30;;
62037;SDS011;47991;42.974;12.082;2024-03-17T13:11:03;8.80;;;3.50;;
62037;SDS011;47991;42.974;12.082;2024-03-17T13:13:36;5.90;;;2.90;;
62037;SDS011;47991;42.974;12.082;2024-03-17T13:16:03;6.20;;;3.10;;
62037;SDS011;47991;42.974;12.082;2024-03-17T13:18:30;6.70;;;2.90;;
62037;SDS011;47991;42.974;12.082;2024-03-17T13:20:57;6.20;;;3.20;;
62037;SDS011;47991;42.974;12.082;2024-03-17T13:23:25;5.70;;;3.00;;
62037;SDS011;47991;42.974;12.082;2024-03-17T13:25:52;5.80;;;2.80;;
62037;SDS011;47991;42.974;12.082;2024-03-17T13:28:20;6.90;;;3.20;;
62037;SDS011;47991;42.974;12.082;2024-03-17T13:30:47;7.50;;;3.10;;
62037;SDS011;47991;42.974;12.082;2024-03-17T13:33:15;6.90;;;3.10;;
62037;SDS011;47991;42.974;12.082;2024-03-17T13:35:42;6.40;;;3.20;;
62037;SDS011;47991;42.974;12.082;2024-03-17T13:38:10;7.30;;;3.10;;
62037;SDS011;47991;42.974;12.082;2024-03-17T13:40:38;7.70;;;3.40;;
62037;SDS011;47991;42.974;12.082;2024-03-17T13:43:07;7.30;;;3.40;;
62037;SDS011;47991;42.974;12.082;2024-03-17T13:45:43;9.80;;;3.50;;
62037;SDS011;47991;42.974;12.082;2024-03-17T13:48:11;6.90;;;3.10;;
62037;SDS011;47991;42.974;12.082;2024-03-17T13:50:39;5.90;;;2.90;;
62037;SDS011;47991;42.974;12.082;2024-03-17T13:53:11;7.00;;;3.30;;
62037;SDS011;47991;42.974;12.082;2024-03-17T13:55:38;5.90;;;3.10;;
62037;SDS011;47991;42.974;12.082;2024-03-17T13:58:06;7.10;;;3.20;;
62037;SDS011;47991;42.974;12.082;2024-03-17T14:00:33;6.80;;;3.20;;
62037;SDS011;47991;42.974;12.082;2024-03-17T14:03:06;7.30;;;3.00;;
62037;SDS011;47991;42.974;12.082;2024-03-17T14:05:33;6.40;;;3.10;;
62037;SDS011;47991;42.974;12.082;2024-03-17T14:08:02;6.50;;;3.00;;
62037;SDS011;47991;42.974;12.082;2024-03-17T14:10:31;6.20;;;3.10;;
62037;SDS011;47991;42.974;12.082;2024-03-17T14:12:58;6.20;;;3.10;;
62037;SDS011;47991;42.974;12.082;2024-03-17T14:15:25;6.30;;;3.00;;
62037;SDS011;47991;42.974;12.082;2024-03-17T14:17:52;6.20;;;3.00;;
62037;SDS011;47991;42.974;12.082;2024-03-17T14:20:20;6.50;;;3.00;;
62037;SDS011;47991;42.974;12.082;2024-03-17T14:22:47;6.90;;;3.50;;
62037;SDS011;47991;42.974;12.082;2024-03-17T14:25:19;6.10;;;3.20;;
62037;SDS011;47991;42.974;12.082;2024-03-17T14:27:48;8.40;;;3.40;;
62037;SDS011;47991;42.974;12.082;2024-03-17T14:30:17;6.40;;;3.50;;
62037;SDS011;47991;42.974;12.082;2024-03-17T14:32:45;9.30;;;4.40;;
62037;SDS011;47991;42.974;12.082;2024-03-17T14:35:14;6.90;;;3.60;;
62037;SDS011;47991;42.974;12.082;2024-03-17T14:37:47;8.10;;;3.80;;
62037;SDS011;47991;42.974;12.082;2024-03-17T14:40:17;6.10;;;2.90;;
62037;SDS011;47991;42.974;12.082;2024-03-17T14:42:50;6.80;;;3.40;;
62037;SDS011;47991;42.974;12.082;2024-03-17T14:45:18;7.60;;;3.40;;
62037;SDS011;47991;42.974;12.082;2024-03-17T14:47:46;9.00;;;3.60;;
62037;SDS011;47991;42.974;12.082;2024-03-17T14:50:13;7.40;;;3.30;;
62037;SDS011;47991;42.974;12.082;2024-03-17T14:52:40;8.30;;;3.70;;
62037;SDS011;47991;42.974;12.082;2024-03-17T14:55:09;7.20;;;3.40;;
62037;SDS011;47991;42.974;12.082;2024-03-17T14:57:40;9.60;;;3.70;;
62037;SDS011;47991;42.974;12.082;2024-03-17T15:00:08;7.60;;;3.80;;
62037;SDS011;47991;42.974;12.082;2024-03-17T15:02:46;8.70;;;4.20;;
62037;SDS011;47991;42.974;12.082;2024-03-17T15:05:14;8.50;;;3.60;;
62037;SDS011;47991;42.974;12.082;2024-03-17T15:07:41;9.50;;;4.20;;
62037;SDS011;47991;42.974;12.082;2024-03-17T15:10:09;8.90;;;4.00;;
62037;SDS011;47991;42.974;12.082;2024-03-17T15:12:36;7.80;;;3.80;;